Aérodrome :
LOGIN :

S'inscrire | Disclaimer

   EN    FR    IT 

 










Légende :    VFR   VFR Marginal   IFR   IFR Intensif   IFR Très Intensif
Visi : 
Plafond : 
>= 8 km
>= 3000ft
5 à 8 km
1000 à 3000 ft
1500m à 5 km
500 à 1000 ft
800 à 1500m
200 à 500 ft
< 800m
< 200 ft
Symboles :   Orages  Brouillard  Fortes neiges  Fortes précipitations  Vent > 20 kt
SIGMETs :   Divers  Orages  Givrage  Turbulence  Onde Orograph.  Cendres Volcan.







- Altitude de l'aérodrome : 13 ft
- Code IATA : GOA


LIMJ - Genoa Cristoforo Colombo

DERNIER METAR :
  • 290320Z 02005KT CAVOK 20/11 Q1017

METARs EXPIRÉS :
  • 290250Z 03005KT CAVOK 21/11 Q1017
  • 290220Z 02004KT 350V050 CAVOK 21/12 Q1017
  • 290150Z 01005KT 340V040 CAVOK 21/12 Q1017
  • 290120Z 02005KT 350V050 CAVOK 21/12 Q1018
  • 290050Z 02004KT CAVOK 21/11 Q1018

TAF TAF LIMJ
Valide du 29 à 00h jusqu'au 30 à 00h UTC


282300Z 2900/2924 VRB05KT CAVOK
Pas de NOTAMs connus pour ce terrain.



MET'MAP, la Météo Aéronautique d'un coup d'oeil ! - Copyright ORBIFLY Décembre 2007 - Disclaimer

ORBIFLY MET'MAP TEAM :

Programmation & Développement : Alexandra Zaïnal
Conception & Développement : Baudouin d'Aumeries
Co-Programmation & Développement : Marc-Olivier Méhu
Soutien technique & logistique : Manuel Goepfert

Contact : metmap@orbifly.com




SOURCES & CREDITS :

   NOAA